sensor_id;sensor_type;location;lat;lon;timestamp;P1;durP1;ratioP1;P2;durP2;ratioP2
55989;SDS011;41875;55.806;38.082;2024-01-30T00:01:44;14.02;;;6.55;;
55989;SDS011;41875;55.806;38.082;2024-01-30T00:04:48;12.80;;;5.35;;
55989;SDS011;41875;55.806;38.082;2024-01-30T00:07:52;14.77;;;6.72;;
55989;SDS011;41875;55.806;38.082;2024-01-30T00:10:56;14.70;;;6.88;;
55989;SDS011;41875;55.806;38.082;2024-01-30T00:14:06;12.10;;;5.75;;
55989;SDS011;41875;55.806;38.082;2024-01-30T00:17:10;15.13;;;6.32;;
55989;SDS011;41875;55.806;38.082;2024-01-30T00:20:13;12.25;;;5.55;;
55989;SDS011;41875;55.806;38.082;2024-01-30T00:23:20;14.18;;;6.53;;
55989;SDS011;41875;55.806;38.082;2024-01-30T00:26:24;12.80;;;6.43;;
55989;SDS011;41875;55.806;38.082;2024-01-30T00:29:29;15.02;;;6.43;;
55989;SDS011;41875;55.806;38.082;2024-01-30T00:32:35;12.88;;;5.80;;
55989;SDS011;41875;55.806;38.082;2024-01-30T00:35:42;12.75;;;5.70;;
55989;SDS011;41875;55.806;38.082;2024-01-30T00:38:50;14.35;;;5.95;;
55989;SDS011;41875;55.806;38.082;2024-01-30T00:41:53;13.27;;;5.70;;
55989;SDS011;41875;55.806;38.082;2024-01-30T00:44:58;13.77;;;6.03;;
55989;SDS011;41875;55.806;38.082;2024-01-30T00:48:05;11.27;;;5.97;;
55989;SDS011;41875;55.806;38.082;2024-01-30T00:51:09;13.98;;;5.53;;
55989;SDS011;41875;55.806;38.082;2024-01-30T00:54:13;13.25;;;5.70;;
55989;SDS011;41875;55.806;38.082;2024-01-30T00:57:21;13.80;;;6.20;;
55989;SDS011;41875;55.806;38.082;2024-01-30T01:00:27;13.13;;;6.45;;
55989;SDS011;41875;55.806;38.082;2024-01-30T01:03:32;13.02;;;5.60;;
55989;SDS011;41875;55.806;38.082;2024-01-30T01:06:36;14.25;;;5.90;;
55989;SDS011;41875;55.806;38.082;2024-01-30T01:09:40;11.13;;;5.28;;
55989;SDS011;41875;55.806;38.082;2024-01-30T01:12:44;13.48;;;5.40;;
55989;SDS011;41875;55.806;38.082;2024-01-30T01:15:51;14.73;;;6.50;;
55989;SDS011;41875;55.806;38.082;2024-01-30T01:18:55;13.68;;;5.40;;
55989;SDS011;41875;55.806;38.082;2024-01-30T01:22:03;11.88;;;4.72;;
55989;SDS011;41875;55.806;38.082;2024-01-30T01:25:07;12.50;;;5.53;;
55989;SDS011;41875;55.806;38.082;2024-01-30T01:28:12;11.13;;;5.70;;
55989;SDS011;41875;55.806;38.082;2024-01-30T01:31:17;13.27;;;5.82;;
55989;SDS011;41875;55.806;38.082;2024-01-30T01:34:27;11.55;;;5.47;;
55989;SDS011;41875;55.806;38.082;2024-01-30T01:37:32;13.20;;;5.60;;
55989;SDS011;41875;55.806;38.082;2024-01-30T01:40:36;11.30;;;5.22;;
55989;SDS011;41875;55.806;38.082;2024-01-30T01:43:41;11.25;;;5.57;;
55989;SDS011;41875;55.806;38.082;2024-01-30T01:46:46;11.30;;;5.20;;
55989;SDS011;41875;55.806;38.082;2024-01-30T01:49:51;12.60;;;5.70;;
55989;SDS011;41875;55.806;38.082;2024-01-30T01:52:55;11.40;;;5.05;;
55989;SDS011;41875;55.806;38.082;2024-01-30T01:55:59;10.48;;;5.20;;
55989;SDS011;41875;55.806;38.082;2024-01-30T01:59:04;13.25;;;5.55;;
55989;SDS011;41875;55.806;38.082;2024-01-30T02:02:12;11.05;;;5.55;;
55989;SDS011;41875;55.806;38.082;2024-01-30T02:05:18;13.40;;;5.97;;
55989;SDS011;41875;55.806;38.082;2024-01-30T02:08:24;12.35;;;5.57;;
55989;SDS011;41875;55.806;38.082;2024-01-30T02:11:31;12.02;;;5.60;;
55989;SDS011;41875;55.806;38.082;2024-01-30T02:14:44;9.52;;;4.75;;
55989;SDS011;41875;55.806;38.082;2024-01-30T02:17:51;16.67;;;5.60;;
55989;SDS011;41875;55.806;38.082;2024-01-30T02:21:16;12.30;;;6.30;;
55989;SDS011;41875;55.806;38.082;2024-01-30T02:24:23;11.52;;;5.03;;
55989;SDS011;41875;55.806;38.082;2024-01-30T02:27:27;11.75;;;5.40;;
55989;SDS011;41875;55.806;38.082;2024-01-30T02:30:31;13.98;;;6.18;;
55989;SDS011;41875;55.806;38.082;2024-01-30T02:33:35;13.05;;;6.68;;
55989;SDS011;41875;55.806;38.082;2024-01-30T02:36:43;13.45;;;6.38;;
55989;SDS011;41875;55.806;38.082;2024-01-30T02:39:49;13.60;;;5.43;;
55989;SDS011;41875;55.806;38.082;2024-01-30T02:42:53;15.90;;;6.38;;
55989;SDS011;41875;55.806;38.082;2024-01-30T02:45:57;12.13;;;6.03;;
55989;SDS011;41875;55.806;38.082;2024-01-30T02:49:03;13.38;;;6.38;;
55989;SDS011;41875;55.806;38.082;2024-01-30T02:52:09;11.77;;;5.60;;
55989;SDS011;41875;55.806;38.082;2024-01-30T02:55:12;12.85;;;5.65;;
55989;SDS011;41875;55.806;38.082;2024-01-30T02:58:19;10.98;;;5.50;;
55989;SDS011;41875;55.806;38.082;2024-01-30T03:01:26;12.15;;;5.80;;
55989;SDS011;41875;55.806;38.082;2024-01-30T03:04:32;12.88;;;7.07;;
55989;SDS011;41875;55.806;38.082;2024-01-30T03:07:42;12.48;;;5.80;;
55989;SDS011;41875;55.806;38.082;2024-01-30T03:10:49;11.50;;;5.90;;
55989;SDS011;41875;55.806;38.082;2024-01-30T03:13:53;12.40;;;6.00;;
55989;SDS011;41875;55.806;38.082;2024-01-30T03:16:57;14.15;;;5.53;;
55989;SDS011;41875;55.806;38.082;2024-01-30T03:20:01;10.27;;;4.90;;
55989;SDS011;41875;55.806;38.082;2024-01-30T03:23:07;11.65;;;5.78;;
55989;SDS011;41875;55.806;38.082;2024-01-30T03:26:10;13.95;;;6.75;;
55989;SDS011;41875;55.806;38.082;2024-01-30T03:29:14;13.65;;;7.13;;
55989;SDS011;41875;55.806;38.082;2024-01-30T03:32:18;11.55;;;6.07;;
55989;SDS011;41875;55.806;38.082;2024-01-30T03:35:23;15.45;;;6.35;;
55989;SDS011;41875;55.806;38.082;2024-01-30T03:38:29;10.55;;;4.97;;
55989;SDS011;41875;55.806;38.082;2024-01-30T03:41:34;11.38;;;5.45;;
55989;SDS011;41875;55.806;38.082;2024-01-30T03:44:38;12.35;;;5.53;;
55989;SDS011;41875;55.806;38.082;2024-01-30T03:47:45;12.23;;;6.50;;
55989;SDS011;41875;55.806;38.082;2024-01-30T03:50:51;12.15;;;6.07;;
55989;SDS011;41875;55.806;38.082;2024-01-30T03:53:59;14.20;;;5.80;;
55989;SDS011;41875;55.806;38.082;2024-01-30T03:57:03;12.13;;;6.82;;
55989;SDS011;41875;55.806;38.082;2024-01-30T04:00:08;12.00;;;6.75;;
55989;SDS011;41875;55.806;38.082;2024-01-30T04:03:15;14.68;;;6.10;;
55989;SDS011;41875;55.806;38.082;2024-01-30T04:06:19;13.82;;;6.35;;
55989;SDS011;41875;55.806;38.082;2024-01-30T04:09:24;12.63;;;5.75;;
55989;SDS011;41875;55.806;38.082;2024-01-30T04:12:28;12.60;;;6.47;;
55989;SDS011;41875;55.806;38.082;2024-01-30T04:15:32;12.93;;;5.28;;
55989;SDS011;41875;55.806;38.082;2024-01-30T04:18:36;9.55;;;4.65;;
55989;SDS011;41875;55.806;38.082;2024-01-30T04:21:40;12.63;;;6.55;;
55989;SDS011;41875;55.806;38.082;2024-01-30T04:24:45;11.65;;;6.00;;
55989;SDS011;41875;55.806;38.082;2024-01-30T04:27:49;16.50;;;6.47;;
55989;SDS011;41875;55.806;38.082;2024-01-30T04:30:53;14.18;;;6.47;;
55989;SDS011;41875;55.806;38.082;2024-01-30T04:33:57;12.50;;;5.82;;
55989;SDS011;41875;55.806;38.082;2024-01-30T04:37:01;10.55;;;4.93;;
55989;SDS011;41875;55.806;38.082;2024-01-30T04:40:06;14.45;;;7.00;;
55989;SDS011;41875;55.806;38.082;2024-01-30T04:43:11;13.65;;;6.63;;
55989;SDS011;41875;55.806;38.082;2024-01-30T04:46:16;12.18;;;6.63;;
55989;SDS011;41875;55.806;38.082;2024-01-30T04:49:20;11.88;;;5.40;;
55989;SDS011;41875;55.806;38.082;2024-01-30T04:52:24;12.27;;;5.15;;
55989;SDS011;41875;55.806;38.082;2024-01-30T04:55:29;16.77;;;7.85;;
55989;SDS011;41875;55.806;38.082;2024-01-30T04:58:33;16.42;;;7.57;;
55989;SDS011;41875;55.806;38.082;2024-01-30T05:01:37;15.00;;;7.53;;
55989;SDS011;41875;55.806;38.082;2024-01-30T05:04:41;14.73;;;7.03;;
55989;SDS011;41875;55.806;38.082;2024-01-30T05:07:45;15.10;;;8.20;;
55989;SDS011;41875;55.806;38.082;2024-01-30T05:10:50;12.60;;;6.70;;
55989;SDS011;41875;55.806;38.082;2024-01-30T05:13:54;17.88;;;6.85;;
55989;SDS011;41875;55.806;38.082;2024-01-30T05:16:58;14.32;;;6.70;;
55989;SDS011;41875;55.806;38.082;2024-01-30T05:20:02;13.88;;;7.30;;
55989;SDS011;41875;55.806;38.082;2024-01-30T05:23:06;11.88;;;5.85;;
55989;SDS011;41875;55.806;38.082;2024-01-30T05:26:12;13.90;;;6.50;;
55989;SDS011;41875;55.806;38.082;2024-01-30T05:29:15;14.57;;;6.63;;
55989;SDS011;41875;55.806;38.082;2024-01-30T05:32:19;12.60;;;5.78;;
55989;SDS011;41875;55.806;38.082;2024-01-30T05:35:23;16.00;;;6.10;;
55989;SDS011;41875;55.806;38.082;2024-01-30T05:38:26;14.13;;;6.22;;
55989;SDS011;41875;55.806;38.082;2024-01-30T05:41:32;17.02;;;7.78;;
55989;SDS011;41875;55.806;38.082;2024-01-30T05:44:35;17.15;;;6.70;;
55989;SDS011;41875;55.806;38.082;2024-01-30T05:47:39;12.73;;;6.18;;
55989;SDS011;41875;55.806;38.082;2024-01-30T05:50:43;14.80;;;7.13;;
55989;SDS011;41875;55.806;38.082;2024-01-30T05:53:47;16.45;;;7.18;;
55989;SDS011;41875;55.806;38.082;2024-01-30T05:56:52;15.27;;;7.55;;
55989;SDS011;41875;55.806;38.082;2024-01-30T05:59:55;18.08;;;8.63;;
55989;SDS011;41875;55.806;38.082;2024-01-30T06:02:59;16.83;;;7.40;;
55989;SDS011;41875;55.806;38.082;2024-01-30T06:06:03;15.48;;;7.72;;
55989;SDS011;41875;55.806;38.082;2024-01-30T06:09:07;15.38;;;6.47;;
55989;SDS011;41875;55.806;38.082;2024-01-30T06:12:12;19.70;;;8.18;;
55989;SDS011;41875;55.806;38.082;2024-01-30T06:15:16;14.40;;;5.72;;
55989;SDS011;41875;55.806;38.082;2024-01-30T06:18:19;20.83;;;8.32;;
55989;SDS011;41875;55.806;38.082;2024-01-30T06:21:23;16.48;;;7.38;;
55989;SDS011;41875;55.806;38.082;2024-01-30T06:24:27;14.57;;;7.72;;
55989;SDS011;41875;55.806;38.082;2024-01-30T06:27:32;19.52;;;8.63;;
55989;SDS011;41875;55.806;38.082;2024-01-30T06:30:36;17.05;;;7.70;;
55989;SDS011;41875;55.806;38.082;2024-01-30T06:33:40;14.70;;;7.43;;
55989;SDS011;41875;55.806;38.082;2024-01-30T06:36:44;18.00;;;7.25;;
55989;SDS011;41875;55.806;38.082;2024-01-30T06:39:48;19.80;;;7.70;;
55989;SDS011;41875;55.806;38.082;2024-01-30T06:42:53;17.05;;;7.35;;
55989;SDS011;41875;55.806;38.082;2024-01-30T06:45:57;15.65;;;7.05;;
55989;SDS011;41875;55.806;38.082;2024-01-30T06:49:01;18.48;;;7.57;;
55989;SDS011;41875;55.806;38.082;2024-01-30T06:52:05;15.63;;;7.95;;
55989;SDS011;41875;55.806;38.082;2024-01-30T06:55:09;21.77;;;8.48;;
55989;SDS011;41875;55.806;38.082;2024-01-30T06:58:14;22.88;;;9.98;;
55989;SDS011;41875;55.806;38.082;2024-01-30T07:01:19;13.43;;;6.05;;
55989;SDS011;41875;55.806;38.082;2024-01-30T07:04:23;17.40;;;7.15;;
55989;SDS011;41875;55.806;38.082;2024-01-30T07:07:27;18.45;;;7.60;;
55989;SDS011;41875;55.806;38.082;2024-01-30T07:10:31;15.77;;;6.88;;
55989;SDS011;41875;55.806;38.082;2024-01-30T07:13:36;16.58;;;7.30;;
55989;SDS011;41875;55.806;38.082;2024-01-30T07:16:40;16.92;;;6.32;;
55989;SDS011;41875;55.806;38.082;2024-01-30T07:19:44;13.82;;;6.60;;
55989;SDS011;41875;55.806;38.082;2024-01-30T07:22:47;12.50;;;5.85;;
55989;SDS011;41875;55.806;38.082;2024-01-30T07:25:51;12.98;;;6.78;;
55989;SDS011;41875;55.806;38.082;2024-01-30T07:28:56;19.55;;;7.93;;
55989;SDS011;41875;55.806;38.082;2024-01-30T07:32:00;16.77;;;7.65;;
55989;SDS011;41875;55.806;38.082;2024-01-30T07:35:04;16.85;;;7.45;;
55989;SDS011;41875;55.806;38.082;2024-01-30T07:38:10;16.35;;;6.57;;
55989;SDS011;41875;55.806;38.082;2024-01-30T07:41:17;17.17;;;7.28;;
55989;SDS011;41875;55.806;38.082;2024-01-30T07:44:23;19.02;;;7.88;;
55989;SDS011;41875;55.806;38.082;2024-01-30T07:47:30;14.57;;;6.50;;
55989;SDS011;41875;55.806;38.082;2024-01-30T07:50:33;13.82;;;7.50;;
55989;SDS011;41875;55.806;38.082;2024-01-30T07:53:38;14.30;;;7.40;;
55989;SDS011;41875;55.806;38.082;2024-01-30T07:56:44;18.15;;;8.13;;
55989;SDS011;41875;55.806;38.082;2024-01-30T07:59:50;18.60;;;7.72;;
55989;SDS011;41875;55.806;38.082;2024-01-30T08:02:53;17.75;;;5.93;;
55989;SDS011;41875;55.806;38.082;2024-01-30T08:05:57;18.08;;;7.78;;
55989;SDS011;41875;55.806;38.082;2024-01-30T08:09:02;23.48;;;6.65;;
55989;SDS011;41875;55.806;38.082;2024-01-30T08:12:06;14.25;;;6.38;;
55989;SDS011;41875;55.806;38.082;2024-01-30T08:15:11;16.40;;;6.40;;
55989;SDS011;41875;55.806;38.082;2024-01-30T08:18:15;13.73;;;5.63;;
55989;SDS011;41875;55.806;38.082;2024-01-30T08:21:19;16.17;;;6.75;;
55989;SDS011;41875;55.806;38.082;2024-01-30T08:24:23;18.25;;;8.27;;
55989;SDS011;41875;55.806;38.082;2024-01-30T08:27:26;15.93;;;6.97;;
55989;SDS011;41875;55.806;38.082;2024-01-30T08:30:31;15.65;;;6.70;;
55989;SDS011;41875;55.806;38.082;2024-01-30T08:33:35;17.58;;;7.25;;
55989;SDS011;41875;55.806;38.082;2024-01-30T08:36:41;18.88;;;7.00;;
55989;SDS011;41875;55.806;38.082;2024-01-30T08:39:46;17.65;;;8.38;;
55989;SDS011;41875;55.806;38.082;2024-01-30T08:42:49;13.45;;;6.70;;
55989;SDS011;41875;55.806;38.082;2024-01-30T08:45:55;17.70;;;7.20;;
55989;SDS011;41875;55.806;38.082;2024-01-30T08:48:59;12.73;;;6.43;;
55989;SDS011;41875;55.806;38.082;2024-01-30T08:52:03;15.40;;;6.47;;
55989;SDS011;41875;55.806;38.082;2024-01-30T08:55:08;15.50;;;7.00;;
55989;SDS011;41875;55.806;38.082;2024-01-30T08:58:12;20.67;;;8.05;;
55989;SDS011;41875;55.806;38.082;2024-01-30T09:01:18;18.30;;;7.05;;
55989;SDS011;41875;55.806;38.082;2024-01-30T09:04:22;18.45;;;7.50;;
55989;SDS011;41875;55.806;38.082;2024-01-30T09:07:27;13.80;;;6.13;;
55989;SDS011;41875;55.806;38.082;2024-01-30T09:10:31;16.95;;;6.28;;
55989;SDS011;41875;55.806;38.082;2024-01-30T09:13:35;19.27;;;8.00;;
55989;SDS011;41875;55.806;38.082;2024-01-30T09:16:40;15.65;;;6.60;;
55989;SDS011;41875;55.806;38.082;2024-01-30T09:19:43;14.98;;;5.60;;
55989;SDS011;41875;55.806;38.082;2024-01-30T09:22:48;17.65;;;6.35;;
55989;SDS011;41875;55.806;38.082;2024-01-30T09:25:52;15.45;;;6.63;;
55989;SDS011;41875;55.806;38.082;2024-01-30T09:28:56;14.63;;;6.82;;
55989;SDS011;41875;55.806;38.082;2024-01-30T09:32:01;14.95;;;6.47;;
55989;SDS011;41875;55.806;38.082;2024-01-30T09:35:05;15.55;;;7.03;;
55989;SDS011;41875;55.806;38.082;2024-01-30T09:38:09;15.63;;;6.63;;
55989;SDS011;41875;55.806;38.082;2024-01-30T09:41:13;15.98;;;7.28;;
55989;SDS011;41875;55.806;38.082;2024-01-30T09:44:18;12.70;;;6.30;;
55989;SDS011;41875;55.806;38.082;2024-01-30T09:47:25;13.18;;;7.25;;
55989;SDS011;41875;55.806;38.082;2024-01-30T09:50:29;16.63;;;6.30;;
55989;SDS011;41875;55.806;38.082;2024-01-30T09:53:34;18.20;;;7.20;;
55989;SDS011;41875;55.806;38.082;2024-01-30T09:56:39;16.90;;;7.05;;
55989;SDS011;41875;55.806;38.082;2024-01-30T09:59:42;17.10;;;7.47;;
55989;SDS011;41875;55.806;38.082;2024-01-30T10:02:47;12.82;;;6.20;;
55989;SDS011;41875;55.806;38.082;2024-01-30T10:05:51;17.63;;;8.30;;
55989;SDS011;41875;55.806;38.082;2024-01-30T10:08:55;17.52;;;7.70;;
55989;SDS011;41875;55.806;38.082;2024-01-30T10:11:59;14.50;;;7.03;;
55989;SDS011;41875;55.806;38.082;2024-01-30T10:15:03;13.68;;;7.03;;
55989;SDS011;41875;55.806;38.082;2024-01-30T10:18:12;12.38;;;5.75;;
55989;SDS011;41875;55.806;38.082;2024-01-30T10:21:16;22.80;;;8.23;;
55989;SDS011;41875;55.806;38.082;2024-01-30T10:24:23;13.57;;;7.80;;
55989;SDS011;41875;55.806;38.082;2024-01-30T10:27:28;20.55;;;8.75;;
55989;SDS011;41875;55.806;38.082;2024-01-30T10:30:32;17.48;;;7.70;;
55989;SDS011;41875;55.806;38.082;2024-01-30T10:33:37;13.82;;;6.78;;
55989;SDS011;41875;55.806;38.082;2024-01-30T10:36:41;20.58;;;8.00;;
55989;SDS011;41875;55.806;38.082;2024-01-30T10:39:49;20.42;;;8.60;;
55989;SDS011;41875;55.806;38.082;2024-01-30T10:42:57;16.13;;;7.50;;
55989;SDS011;41875;55.806;38.082;2024-01-30T10:46:06;18.63;;;9.25;;
55989;SDS011;41875;55.806;38.082;2024-01-30T10:49:17;15.35;;;7.53;;
55989;SDS011;41875;55.806;38.082;2024-01-30T10:52:22;21.83;;;10.18;;
55989;SDS011;41875;55.806;38.082;2024-01-30T10:55:27;18.25;;;9.20;;
55989;SDS011;41875;55.806;38.082;2024-01-30T10:58:32;18.38;;;8.35;;
55989;SDS011;41875;55.806;38.082;2024-01-30T11:01:36;19.23;;;8.88;;
55989;SDS011;41875;55.806;38.082;2024-01-30T11:04:42;16.88;;;8.02;;
55989;SDS011;41875;55.806;38.082;2024-01-30T11:07:46;23.00;;;9.30;;
55989;SDS011;41875;55.806;38.082;2024-01-30T11:10:54;25.08;;;10.38;;
55989;SDS011;41875;55.806;38.082;2024-01-30T11:14:00;24.65;;;6.43;;
55989;SDS011;41875;55.806;38.082;2024-01-30T11:17:04;14.88;;;8.68;;
55989;SDS011;41875;55.806;38.082;2024-01-30T11:20:13;16.88;;;7.63;;
55989;SDS011;41875;55.806;38.082;2024-01-30T11:23:21;16.13;;;7.97;;
55989;SDS011;41875;55.806;38.082;2024-01-30T11:26:27;18.48;;;8.77;;
55989;SDS011;41875;55.806;38.082;2024-01-30T11:29:32;23.48;;;9.02;;
55989;SDS011;41875;55.806;38.082;2024-01-30T11:32:38;19.38;;;8.65;;
55989;SDS011;41875;55.806;38.082;2024-01-30T11:35:44;15.57;;;6.60;;
55989;SDS011;41875;55.806;38.082;2024-01-30T11:38:48;19.80;;;7.10;;
55989;SDS011;41875;55.806;38.082;2024-01-30T11:41:52;20.92;;;8.52;;
55989;SDS011;41875;55.806;38.082;2024-01-30T11:44:59;17.75;;;7.65;;
55989;SDS011;41875;55.806;38.082;2024-01-30T11:48:04;18.08;;;6.70;;
55989;SDS011;41875;55.806;38.082;2024-01-30T11:51:14;13.27;;;6.10;;
55989;SDS011;41875;55.806;38.082;2024-01-30T11:54:20;18.17;;;9.15;;
55989;SDS011;41875;55.806;38.082;2024-01-30T11:57:24;20.58;;;6.95;;
55989;SDS011;41875;55.806;38.082;2024-01-30T12:00:29;14.50;;;5.38;;
55989;SDS011;41875;55.806;38.082;2024-01-30T12:03:35;13.63;;;6.63;;
55989;SDS011;41875;55.806;38.082;2024-01-30T12:06:40;12.68;;;6.00;;
55989;SDS011;41875;55.806;38.082;2024-01-30T12:09:51;14.63;;;6.55;;
55989;SDS011;41875;55.806;38.082;2024-01-30T12:12:56;15.52;;;5.60;;
55989;SDS011;41875;55.806;38.082;2024-01-30T12:16:00;14.73;;;6.05;;
55989;SDS011;41875;55.806;38.082;2024-01-30T12:19:25;14.35;;;6.40;;
55989;SDS011;41875;55.806;38.082;2024-01-30T12:22:28;15.95;;;6.85;;
55989;SDS011;41875;55.806;38.082;2024-01-30T12:25:32;13.85;;;6.32;;
55989;SDS011;41875;55.806;38.082;2024-01-30T12:28:36;16.25;;;6.82;;
55989;SDS011;41875;55.806;38.082;2024-01-30T12:31:52;20.02;;;7.30;;
55989;SDS011;41875;55.806;38.082;2024-01-30T12:34:58;17.50;;;6.55;;
55989;SDS011;41875;55.806;38.082;2024-01-30T12:38:04;17.20;;;7.18;;
55989;SDS011;41875;55.806;38.082;2024-01-30T12:41:08;15.57;;;6.55;;
55989;SDS011;41875;55.806;38.082;2024-01-30T12:44:13;14.23;;;6.22;;
55989;SDS011;41875;55.806;38.082;2024-01-30T12:47:17;22.73;;;9.38;;
55989;SDS011;41875;55.806;38.082;2024-01-30T12:50:22;19.63;;;7.88;;
55989;SDS011;41875;55.806;38.082;2024-01-30T12:53:26;19.45;;;7.78;;
55989;SDS011;41875;55.806;38.082;2024-01-30T12:56:30;17.55;;;7.65;;
55989;SDS011;41875;55.806;38.082;2024-01-30T12:59:34;14.35;;;6.38;;
55989;SDS011;41875;55.806;38.082;2024-01-30T13:02:38;18.45;;;7.13;;
55989;SDS011;41875;55.806;38.082;2024-01-30T13:05:45;12.07;;;5.57;;
55989;SDS011;41875;55.806;38.082;2024-01-30T13:08:49;13.38;;;6.15;;
55989;SDS011;41875;55.806;38.082;2024-01-30T13:11:53;18.23;;;7.80;;
55989;SDS011;41875;55.806;38.082;2024-01-30T13:14:57;16.95;;;6.80;;
55989;SDS011;41875;55.806;38.082;2024-01-30T13:18:05;19.95;;;9.82;;
55989;SDS011;41875;55.806;38.082;2024-01-30T13:21:11;26.38;;;8.45;;
55989;SDS011;41875;55.806;38.082;2024-01-30T13:24:15;23.40;;;9.25;;
55989;SDS011;41875;55.806;38.082;2024-01-30T13:27:18;20.25;;;8.82;;
55989;SDS011;41875;55.806;38.082;2024-01-30T13:30:23;27.45;;;11.13;;
55989;SDS011;41875;55.806;38.082;2024-01-30T13:33:27;22.35;;;8.65;;
55989;SDS011;41875;55.806;38.082;2024-01-30T13:36:32;22.83;;;11.13;;
55989;SDS011;41875;55.806;38.082;2024-01-30T13:39:36;15.02;;;6.78;;
55989;SDS011;41875;55.806;38.082;2024-01-30T13:42:41;17.90;;;6.28;;
55989;SDS011;41875;55.806;38.082;2024-01-30T13:45:44;20.60;;;7.63;;
55989;SDS011;41875;55.806;38.082;2024-01-30T13:48:49;18.85;;;7.72;;
55989;SDS011;41875;55.806;38.082;2024-01-30T13:51:54;20.02;;;7.97;;
55989;SDS011;41875;55.806;38.082;2024-01-30T13:54:59;15.75;;;6.47;;
55989;SDS011;41875;55.806;38.082;2024-01-30T13:58:04;18.95;;;8.43;;
55989;SDS011;41875;55.806;38.082;2024-01-30T14:01:09;19.55;;;6.53;;
55989;SDS011;41875;55.806;38.082;2024-01-30T14:04:13;12.48;;;5.57;;
55989;SDS011;41875;55.806;38.082;2024-01-30T14:07:18;21.45;;;7.80;;
55989;SDS011;41875;55.806;38.082;2024-01-30T14:10:22;17.40;;;7.65;;
55989;SDS011;41875;55.806;38.082;2024-01-30T14:13:27;21.77;;;8.77;;
55989;SDS011;41875;55.806;38.082;2024-01-30T14:16:33;22.02;;;9.88;;
55989;SDS011;41875;55.806;38.082;2024-01-30T14:19:37;18.17;;;8.20;;
55989;SDS011;41875;55.806;38.082;2024-01-30T14:22:42;19.05;;;8.75;;
55989;SDS011;41875;55.806;38.082;2024-01-30T14:25:46;32.35;;;9.30;;
55989;SDS011;41875;55.806;38.082;2024-01-30T14:28:50;19.48;;;8.00;;
55989;SDS011;41875;55.806;38.082;2024-01-30T14:31:53;21.15;;;8.80;;
55989;SDS011;41875;55.806;38.082;2024-01-30T14:34:58;23.33;;;9.25;;
55989;SDS011;41875;55.806;38.082;2024-01-30T14:38:04;19.67;;;9.20;;
55989;SDS011;41875;55.806;38.082;2024-01-30T14:41:09;22.30;;;8.23;;
55989;SDS011;41875;55.806;38.082;2024-01-30T14:44:13;21.85;;;9.45;;
55989;SDS011;41875;55.806;38.082;2024-01-30T14:47:17;25.38;;;9.38;;
55989;SDS011;41875;55.806;38.082;2024-01-30T14:50:21;20.65;;;9.13;;
55989;SDS011;41875;55.806;38.082;2024-01-30T14:53:26;22.00;;;8.63;;
55989;SDS011;41875;55.806;38.082;2024-01-30T14:56:30;18.30;;;7.55;;
55989;SDS011;41875;55.806;38.082;2024-01-30T14:59:34;18.10;;;8.50;;
55989;SDS011;41875;55.806;38.082;2024-01-30T15:02:38;25.92;;;9.55;;
55989;SDS011;41875;55.806;38.082;2024-01-30T15:05:42;24.63;;;9.80;;
55989;SDS011;41875;55.806;38.082;2024-01-30T15:08:47;18.45;;;7.78;;
55989;SDS011;41875;55.806;38.082;2024-01-30T15:11:51;21.73;;;8.32;;
55989;SDS011;41875;55.806;38.082;2024-01-30T15:14:55;23.60;;;9.35;;
55989;SDS011;41875;55.806;38.082;2024-01-30T15:17:59;20.45;;;8.23;;
55989;SDS011;41875;55.806;38.082;2024-01-30T15:21:03;25.58;;;9.73;;
55989;SDS011;41875;55.806;38.082;2024-01-30T15:24:08;23.48;;;7.05;;
55989;SDS011;41875;55.806;38.082;2024-01-30T15:27:16;19.48;;;7.70;;
55989;SDS011;41875;55.806;38.082;2024-01-30T15:30:21;19.50;;;7.22;;
55989;SDS011;41875;55.806;38.082;2024-01-30T15:33:25;16.27;;;6.65;;
55989;SDS011;41875;55.806;38.082;2024-01-30T15:36:30;22.25;;;8.20;;
55989;SDS011;41875;55.806;38.082;2024-01-30T15:39:35;22.48;;;9.35;;
55989;SDS011;41875;55.806;38.082;2024-01-30T15:42:39;22.00;;;8.00;;
55989;SDS011;41875;55.806;38.082;2024-01-30T15:45:42;19.85;;;8.43;;
55989;SDS011;41875;55.806;38.082;2024-01-30T15:48:46;23.42;;;8.50;;
55989;SDS011;41875;55.806;38.082;2024-01-30T15:51:50;19.42;;;8.73;;
55989;SDS011;41875;55.806;38.082;2024-01-30T15:54:55;22.58;;;9.32;;
55989;SDS011;41875;55.806;38.082;2024-01-30T15:57:59;25.08;;;10.60;;
55989;SDS011;41875;55.806;38.082;2024-01-30T16:01:03;22.63;;;10.35;;
55989;SDS011;41875;55.806;38.082;2024-01-30T16:04:07;20.90;;;8.88;;
55989;SDS011;41875;55.806;38.082;2024-01-30T16:07:11;20.33;;;9.52;;
55989;SDS011;41875;55.806;38.082;2024-01-30T16:10:16;24.52;;;8.40;;
55989;SDS011;41875;55.806;38.082;2024-01-30T16:13:19;25.27;;;10.32;;
55989;SDS011;41875;55.806;38.082;2024-01-30T16:16:23;26.67;;;10.32;;
55989;SDS011;41875;55.806;38.082;2024-01-30T16:19:27;23.65;;;10.52;;
55989;SDS011;41875;55.806;38.082;2024-01-30T16:22:32;24.40;;;9.32;;
55989;SDS011;41875;55.806;38.082;2024-01-30T16:25:38;20.75;;;8.70;;
55989;SDS011;41875;55.806;38.082;2024-01-30T16:28:42;27.55;;;9.15;;
55989;SDS011;41875;55.806;38.082;2024-01-30T16:31:46;21.95;;;8.95;;
55989;SDS011;41875;55.806;38.082;2024-01-30T16:34:49;25.65;;;8.93;;
55989;SDS011;41875;55.806;38.082;2024-01-30T16:37:56;19.85;;;7.90;;
55989;SDS011;41875;55.806;38.082;2024-01-30T16:41:02;14.90;;;7.15;;
55989;SDS011;41875;55.806;38.082;2024-01-30T16:44:06;20.92;;;9.93;;
55989;SDS011;41875;55.806;38.082;2024-01-30T16:47:10;18.65;;;8.13;;
55989;SDS011;41875;55.806;38.082;2024-01-30T16:50:14;20.92;;;9.38;;
55989;SDS011;41875;55.806;38.082;2024-01-30T16:53:18;25.23;;;9.85;;
55989;SDS011;41875;55.806;38.082;2024-01-30T16:56:23;23.08;;;9.73;;
55989;SDS011;41875;55.806;38.082;2024-01-30T16:59:27;23.17;;;9.95;;
55989;SDS011;41875;55.806;38.082;2024-01-30T17:02:31;25.30;;;11.73;;
55989;SDS011;41875;55.806;38.082;2024-01-30T17:05:35;26.83;;;10.40;;
55989;SDS011;41875;55.806;38.082;2024-01-30T17:08:39;27.20;;;10.25;;
55989;SDS011;41875;55.806;38.082;2024-01-30T17:11:48;19.95;;;9.13;;
55989;SDS011;41875;55.806;38.082;2024-01-30T17:14:52;26.30;;;10.82;;
55989;SDS011;41875;55.806;38.082;2024-01-30T17:17:57;22.88;;;11.27;;
55989;SDS011;41875;55.806;38.082;2024-01-30T17:21:01;25.05;;;10.82;;
55989;SDS011;41875;55.806;38.082;2024-01-30T17:24:17;26.20;;;10.38;;
55989;SDS011;41875;55.806;38.082;2024-01-30T17:27:27;30.70;;;11.75;;
55989;SDS011;41875;55.806;38.082;2024-01-30T17:30:31;27.45;;;10.10;;
55989;SDS011;41875;55.806;38.082;2024-01-30T17:33:37;26.40;;;10.98;;
55989;SDS011;41875;55.806;38.082;2024-01-30T17:36:43;23.50;;;10.35;;
55989;SDS011;41875;55.806;38.082;2024-01-30T17:39:50;28.45;;;10.65;;
55989;SDS011;41875;55.806;38.082;2024-01-30T17:42:57;25.02;;;10.48;;
55989;SDS011;41875;55.806;38.082;2024-01-30T17:46:00;29.85;;;11.40;;
55989;SDS011;41875;55.806;38.082;2024-01-30T17:49:06;26.80;;;10.48;;
55989;SDS011;41875;55.806;38.082;2024-01-30T17:52:13;29.25;;;12.80;;
55989;SDS011;41875;55.806;38.082;2024-01-30T17:55:18;23.30;;;8.60;;
55989;SDS011;41875;55.806;38.082;2024-01-30T17:58:25;22.98;;;10.23;;
55989;SDS011;41875;55.806;38.082;2024-01-30T18:01:34;25.27;;;10.52;;